createdAt,value
2019-03-05T00:03:11.493Z,2.91
2019-03-05T00:08:19.286Z,2.88
2019-03-05T00:13:27.054Z,2.73
2019-03-05T00:18:34.785Z,2.30
2019-03-05T00:23:42.585Z,2.44
2019-03-05T00:28:50.410Z,2.67
2019-03-05T00:33:58.041Z,2.23
2019-03-05T00:39:05.935Z,1.89
2019-03-05T00:44:13.614Z,2.25
2019-03-05T00:49:22.294Z,2.04
2019-03-05T00:54:30.091Z,1.88
2019-03-05T00:59:37.752Z,1.99
2019-03-05T01:04:45.410Z,1.96
2019-03-05T01:09:53.104Z,1.82
2019-03-05T01:15:00.683Z,1.91
2019-03-05T01:20:09.347Z,2.20
2019-03-05T01:25:16.991Z,2.12
2019-03-05T01:30:24.641Z,2.46
2019-03-05T01:35:32.249Z,2.50
2019-03-05T01:40:40.081Z,3.02
2019-03-05T01:45:48.594Z,3.21
2019-03-05T01:50:56.271Z,3.20
2019-03-05T01:56:03.873Z,3.17
2019-03-05T02:01:11.673Z,3.68
2019-03-05T02:06:19.249Z,3.29
2019-03-05T02:11:26.970Z,3.82
2019-03-05T02:16:34.820Z,3.24
2019-03-05T02:21:42.604Z,2.79
2019-03-05T02:27:12.571Z,2.86
2019-03-05T02:32:20.258Z,4.20
2019-03-05T02:37:28.098Z,2.26
2019-03-05T02:42:35.804Z,2.03
2019-03-05T02:47:43.410Z,2.14
2019-03-05T02:52:51.057Z,2.01
2019-03-05T02:57:58.666Z,2.43
2019-03-05T03:03:06.370Z,2.09
2019-03-05T03:08:13.982Z,2.64
2019-03-05T03:13:21.942Z,3.15
2019-03-05T03:18:29.864Z,2.20
2019-03-05T03:23:37.473Z,2.35
2019-03-05T03:28:45.090Z,2.41
2019-03-05T03:33:53.683Z,2.60
2019-03-05T03:39:01.373Z,2.43
2019-03-05T03:44:09.017Z,2.52
2019-03-05T03:49:16.751Z,2.12
2019-03-05T03:54:24.449Z,2.34
2019-03-05T03:59:32.090Z,2.15
2019-03-05T04:04:39.918Z,1.95
2019-03-05T04:09:47.729Z,2.13
2019-03-05T04:14:55.537Z,2.14
2019-03-05T04:20:04.146Z,1.95
2019-03-05T04:25:11.770Z,1.97
2019-03-05T04:30:19.627Z,1.99
2019-03-05T04:35:27.500Z,2.38
2019-03-05T04:40:35.093Z,2.31
2019-03-05T04:45:42.750Z,2.35
2019-03-05T04:50:50.349Z,2.36
2019-03-05T04:55:57.959Z,2.47
2019-03-05T05:01:07.234Z,2.42
2019-03-05T05:06:13.822Z,2.52
2019-03-05T05:11:21.442Z,2.54
2019-03-05T05:16:29.321Z,2.48
2019-03-05T05:21:36.966Z,2.18
2019-03-05T05:26:44.766Z,2.41
2019-03-05T05:31:53.393Z,2.63
2019-03-05T05:37:01.009Z,2.63
2019-03-05T05:42:08.718Z,2.80
2019-03-05T05:47:16.510Z,2.11
2019-03-05T05:52:24.203Z,2.07
2019-03-05T05:57:31.853Z,2.57
2019-03-05T06:02:39.488Z,2.50
2019-03-05T06:07:47.324Z,2.46
2019-03-05T06:12:55.393Z,2.35
2019-03-05T06:18:03.172Z,2.11
2019-03-05T06:23:10.935Z,2.34
2019-03-05T06:28:18.613Z,2.41
2019-03-05T06:33:26.274Z,2.28
2019-03-05T06:38:34.149Z,2.65
2019-03-05T06:43:41.773Z,2.40
2019-03-05T06:48:49.416Z,2.39
2019-03-05T06:53:57.985Z,2.93
2019-03-05T06:59:05.666Z,2.82
2019-03-05T07:04:13.514Z,2.47
2019-03-05T07:09:21.342Z,2.64
2019-03-05T07:14:29.170Z,2.46
2019-03-05T07:19:37.928Z,2.60
2019-03-05T07:24:45.599Z,2.26
2019-03-05T07:29:53.224Z,2.31
2019-03-05T07:35:00.830Z,2.51
2019-03-05T07:40:08.537Z,2.38
2019-03-05T07:45:16.229Z,2.57
2019-03-05T07:50:24.076Z,2.60
2019-03-05T07:55:31.829Z,2.63
2019-03-05T08:00:39.676Z,2.47
2019-03-05T08:05:47.565Z,2.44
2019-03-05T08:10:54.993Z,2.34
2019-03-05T08:16:02.901Z,2.59
2019-03-05T08:21:10.289Z,2.38
2019-03-05T08:26:17.984Z,1.93
2019-03-05T08:31:25.606Z,2.53
2019-03-05T08:36:33.277Z,2.17
2019-03-05T08:41:40.953Z,2.10
2019-03-05T08:46:48.701Z,2.00
2019-03-05T08:51:56.369Z,2.01
2019-03-05T08:57:04.075Z,2.21
2019-03-05T09:02:11.796Z,2.15
2019-03-05T09:07:19.626Z,1.82
2019-03-05T09:12:27.250Z,2.06
2019-03-05T09:17:35.445Z,2.09
2019-03-05T09:22:43.226Z,2.11
2019-03-05T09:27:50.909Z,1.95
2019-03-05T09:32:58.496Z,1.96
2019-03-05T09:38:06.177Z,2.09
2019-03-05T09:43:14.128Z,2.11
2019-03-05T09:48:21.770Z,2.42
2019-03-05T09:53:29.497Z,2.07
2019-03-05T09:58:37.239Z,2.04
2019-03-05T10:03:44.889Z,1.96
2019-03-05T10:08:52.568Z,1.92
2019-03-05T10:14:00.182Z,2.00
2019-03-05T10:19:07.851Z,1.78
2019-03-05T10:24:15.637Z,1.96
2019-03-05T10:29:23.294Z,1.72
2019-03-05T10:34:30.978Z,1.62
2019-03-05T10:39:38.778Z,1.47
2019-03-05T10:44:46.424Z,1.65
2019-03-05T10:49:54.021Z,1.44
2019-03-05T10:55:01.674Z,1.40
2019-03-05T11:00:09.481Z,1.58
2019-03-05T11:05:17.111Z,1.46
2019-03-05T11:10:24.757Z,1.50
2019-03-05T11:15:32.495Z,1.55
2019-03-05T11:20:40.180Z,1.50
2019-03-05T11:25:47.852Z,1.51
2019-03-05T11:30:55.561Z,1.43
2019-03-05T11:36:03.310Z,1.39
2019-03-05T11:41:10.930Z,1.25
2019-03-05T11:46:19.350Z,1.37
2019-03-05T11:51:27.072Z,1.38
2019-03-05T11:56:34.851Z,1.53
2019-03-05T12:01:42.529Z,1.30
2019-03-05T12:06:50.130Z,1.38
2019-03-05T12:11:57.799Z,1.50
2019-03-05T12:17:05.409Z,1.58
2019-03-05T12:22:13.054Z,1.36
2019-03-05T12:27:21.574Z,1.32
2019-03-05T12:32:29.277Z,1.22
2019-03-05T12:37:37.066Z,1.33
2019-03-05T12:42:44.771Z,1.34
2019-03-05T12:47:52.577Z,1.32
2019-03-05T12:53:00.150Z,1.28
2019-03-05T12:58:08.234Z,1.32
2019-03-05T13:03:15.933Z,1.31
2019-03-05T13:08:23.665Z,1.50
2019-03-05T13:13:31.316Z,1.27
2019-03-05T13:18:39.093Z,1.31
2019-03-05T13:23:46.685Z,1.20
2019-03-05T13:28:54.484Z,1.33
2019-03-05T13:34:02.106Z,1.34
2019-03-05T13:39:09.889Z,1.22
2019-03-05T13:44:17.486Z,1.19
2019-03-05T13:49:25.385Z,1.42
2019-03-05T13:54:33.123Z,1.38
2019-03-05T13:59:41.770Z,1.31
2019-03-05T14:04:49.425Z,1.32
2019-03-05T14:09:57.201Z,1.21
2019-03-05T14:15:04.861Z,1.26
2019-03-05T14:20:12.475Z,1.37
2019-03-05T14:25:20.617Z,1.17
2019-03-05T14:30:28.397Z,1.09
2019-03-05T14:35:36.059Z,1.04
2019-03-05T14:40:43.958Z,1.78
2019-03-05T14:45:51.699Z,1.02
2019-03-05T14:50:59.500Z,1.13
2019-03-05T14:56:07.132Z,1.79
2019-03-05T15:01:14.928Z,1.12
2019-03-05T15:06:22.534Z,1.24
2019-03-05T15:11:30.554Z,1.11
2019-03-05T15:16:38.298Z,1.29
2019-03-05T15:21:46.193Z,1.20
2019-03-05T15:26:54.253Z,1.20
2019-03-05T15:32:02.064Z,1.32
2019-03-05T15:37:09.702Z,1.10
2019-03-05T15:42:17.893Z,1.24
2019-03-05T15:47:25.628Z,1.55
2019-03-05T15:52:33.744Z,1.28
2019-03-05T15:57:41.379Z,1.37
2019-03-05T16:02:49.104Z,2.07
2019-03-05T16:07:57.201Z,1.37
2019-03-05T16:13:04.946Z,1.42
2019-03-05T16:18:12.609Z,1.39
2019-03-05T16:23:20.352Z,1.39
2019-03-05T16:28:28.077Z,1.61
2019-03-05T16:33:37.091Z,1.65
2019-03-05T16:38:43.726Z,1.47
2019-03-05T16:43:51.397Z,1.53
2019-03-05T16:48:58.990Z,1.60
2019-03-05T16:54:07.610Z,1.59
2019-03-05T16:59:15.285Z,1.49
2019-03-05T17:04:22.997Z,1.81
2019-03-05T17:09:30.659Z,1.79
2019-03-05T17:14:38.528Z,1.79
2019-03-05T17:19:46.405Z,1.77
2019-03-05T17:24:54.212Z,1.68
2019-03-05T17:30:01.928Z,1.56
2019-03-05T17:35:09.743Z,1.76
2019-03-05T17:40:17.397Z,1.63
2019-03-05T17:45:25.143Z,1.78
2019-03-05T17:50:32.879Z,1.88
2019-03-05T17:55:40.772Z,2.11
2019-03-05T18:00:48.590Z,1.98
2019-03-05T18:05:56.349Z,2.17
2019-03-05T18:11:04.013Z,2.15
2019-03-05T18:16:12.328Z,2.43
2019-03-05T18:21:20.163Z,2.79
2019-03-05T18:26:27.861Z,3.21
2019-03-05T18:31:35.625Z,2.57
2019-03-05T18:36:43.250Z,3.01
2019-03-05T18:41:51.093Z,2.69
2019-03-05T18:46:58.717Z,2.57
2019-03-05T18:52:06.505Z,2.00
2019-03-05T18:57:14.192Z,1.72
2019-03-05T19:02:21.994Z,1.71
2019-03-05T19:07:30.074Z,1.68
2019-03-05T19:12:37.783Z,1.83
2019-03-05T19:17:46.425Z,1.76
2019-03-05T19:22:54.280Z,2.04
2019-03-05T19:28:02.040Z,2.12
2019-03-05T19:33:09.830Z,2.10
2019-03-05T19:38:18.183Z,2.42
2019-03-05T19:43:25.965Z,2.11
2019-03-05T19:48:33.999Z,2.01
2019-03-05T19:53:41.778Z,2.03
2019-03-05T19:58:50.168Z,2.99
2019-03-05T20:03:58.037Z,2.03
2019-03-05T20:09:06.297Z,2.17
2019-03-05T20:14:14.277Z,2.56
2019-03-05T20:19:22.452Z,2.69
2019-03-05T20:24:30.354Z,2.53
2019-03-05T20:29:38.372Z,2.66
2019-03-05T20:34:46.703Z,2.21
2019-03-05T20:39:54.313Z,2.40
2019-03-05T20:45:02.410Z,2.25
2019-03-05T20:50:10.067Z,2.27
2019-03-05T20:55:18.267Z,2.34
2019-03-05T21:00:25.895Z,2.37
2019-03-05T21:05:34.345Z,2.69
2019-03-05T21:10:42.113Z,2.69
2019-03-05T21:15:49.857Z,2.26
2019-03-05T21:20:57.486Z,2.29
2019-03-05T21:26:05.326Z,2.39
2019-03-05T21:31:13.089Z,2.58
2019-03-05T21:36:21.001Z,2.93
2019-03-05T21:41:28.701Z,2.93
2019-03-05T21:46:36.471Z,2.61
2019-03-05T21:51:44.102Z,2.59
2019-03-05T21:56:52.070Z,2.49
2019-03-05T22:01:59.686Z,2.59
2019-03-05T22:07:07.475Z,2.73
2019-03-05T22:12:16.542Z,2.98
2019-03-05T22:17:23.375Z,3.28
2019-03-05T22:22:31.118Z,3.41
2019-03-05T22:27:38.941Z,3.79
2019-03-05T22:32:46.575Z,4.23
2019-03-05T22:37:54.258Z,4.07
2019-03-05T22:43:01.901Z,4.05
2019-03-05T22:48:09.644Z,4.05
2019-03-05T22:53:17.416Z,4.09
2019-03-05T22:58:25.125Z,4.08
2019-03-05T23:03:32.774Z,3.77
2019-03-05T23:08:40.405Z,3.98
2019-03-05T23:13:48.146Z,3.71
2019-03-05T23:18:55.775Z,3.44
2019-03-05T23:24:03.630Z,3.61
2019-03-05T23:29:11.266Z,3.64
2019-03-05T23:34:19.018Z,3.84
2019-03-05T23:39:26.713Z,3.55
2019-03-05T23:44:34.543Z,3.65
2019-03-05T23:49:42.271Z,3.34
2019-03-05T23:54:49.979Z,3.73
2019-03-05T23:59:57.733Z,3.64
